createdAt,value
2018-06-09T00:01:24.767Z,99355.22
2018-06-09T00:03:57.700Z,99355.47
2018-06-09T00:06:38.232Z,99359.83
2018-06-09T00:09:10.248Z,99355.26
2018-06-09T00:11:43.762Z,99360.22
2018-06-09T00:14:14.991Z,99356.67
2018-06-09T00:16:46.890Z,99353.63
2018-06-09T00:19:19.229Z,99355.29
2018-06-09T00:22:02.589Z,99357.75
2018-06-09T00:24:33.463Z,99362.09
2018-06-09T00:27:06.419Z,99362.88
2018-06-09T00:29:42.590Z,99312.55
2018-06-09T00:32:14.113Z,99356.59
2018-06-09T00:34:46.149Z,99355.73
2018-06-09T00:37:18.297Z,99352.98
2018-06-09T00:39:49.092Z,99356.23
2018-06-09T00:42:21.125Z,99363.91
2018-06-09T00:44:52.256Z,99352.73
2018-06-09T00:47:24.635Z,99366.66
2018-06-09T00:49:58.240Z,99366.28
2018-06-09T00:52:31.527Z,99357.01
2018-06-09T00:55:06.183Z,99362.92
2018-06-09T00:57:38.377Z,99363.67
2018-06-09T01:00:10.629Z,99364.27
2018-06-09T01:02:42.516Z,99333.71
2018-06-09T01:05:15.181Z,99363.05
2018-06-09T01:07:45.911Z,99358.13
2018-06-09T01:10:16.853Z,99360.34
2018-06-09T01:12:48.060Z,99354.10
2018-06-09T01:15:21.925Z,99359.81
2018-06-09T01:17:56.610Z,99355.16
2018-06-09T01:20:28.248Z,99361.98
2018-06-09T01:22:59.367Z,99363.84
2018-06-09T01:25:30.135Z,99360.38
2018-06-09T01:28:11.818Z,99360.13
2018-06-09T01:30:46.497Z,99359.96
2018-06-09T01:33:18.444Z,99361.88
2018-06-09T01:35:51.975Z,99360.77
2018-06-09T01:38:23.971Z,99360.87
2018-06-09T01:40:57.964Z,99353.48
2018-06-09T01:43:30.007Z,99352.13
2018-06-09T01:46:01.590Z,99352.72
2018-06-09T01:48:37.087Z,99333.70
2018-06-09T01:51:09.992Z,99339.42
2018-06-09T01:53:41.727Z,99344.13
2018-06-09T01:56:14.938Z,99346.33
2018-06-09T01:58:50.291Z,99358.05
2018-06-09T02:01:24.307Z,99360.72
2018-06-09T02:03:56.952Z,99360.48
2018-06-09T02:06:29.925Z,99356.46
2018-06-09T02:09:00.999Z,99364.08
2018-06-09T02:11:32.676Z,99359.20
2018-06-09T02:14:05.313Z,99356.99
2018-06-09T02:16:37.421Z,99353.47
2018-06-09T02:19:09.241Z,99350.43
2018-06-09T02:21:41.935Z,99349.62
2018-06-09T02:24:13.929Z,99352.92
2018-06-09T02:26:46.297Z,99354.57
2018-06-09T02:29:18.560Z,99349.09
2018-06-09T02:31:50.620Z,99350.15
2018-06-09T02:34:22.233Z,99342.19
2018-06-09T02:36:53.928Z,99341.95
2018-06-09T02:39:24.845Z,99349.09
2018-06-09T02:41:56.765Z,99351.57
2018-06-09T02:44:28.643Z,99357.06
2018-06-09T02:47:00.232Z,99359.84
2018-06-09T02:49:32.361Z,99357.12
2018-06-09T02:52:04.430Z,99360.06
2018-06-09T02:54:36.226Z,99367.98
2018-06-09T02:57:06.968Z,99372.38
2018-06-09T02:59:40.746Z,99369.36
2018-06-09T03:02:14.874Z,99349.20
2018-06-09T03:04:45.797Z,99373.45
2018-06-09T03:07:17.977Z,99368.25
2018-06-09T03:09:51.377Z,99371.83
2018-06-09T03:12:24.626Z,99368.25
2018-06-09T03:14:57.079Z,99366.27
2018-06-09T03:17:29.669Z,99365.49
2018-06-09T03:20:01.720Z,99369.63
2018-06-09T03:22:37.646Z,99369.09
2018-06-09T03:25:13.348Z,99375.89
2018-06-09T03:27:46.031Z,99366.61
2018-06-09T03:30:18.048Z,99362.75
2018-06-09T03:32:53.195Z,99360.81
2018-06-09T03:35:24.037Z,99364.41
2018-06-09T03:37:55.035Z,99365.78
2018-06-09T03:40:27.125Z,99359.86
2018-06-09T03:42:59.329Z,99358.73
2018-06-09T03:45:34.813Z,99359.78
2018-06-09T03:48:07.321Z,99356.76
2018-06-09T03:50:47.359Z,99363.59
2018-06-09T03:53:23.255Z,99360.10
2018-06-09T03:55:56.059Z,99363.94
2018-06-09T03:58:28.862Z,99362.27
2018-06-09T04:01:03.704Z,99363.87
2018-06-09T04:03:43.874Z,99358.66
2018-06-09T04:06:16.581Z,99360.01
2018-06-09T04:08:48.089Z,99369.88
2018-06-09T04:11:19.129Z,99360.33
2018-06-09T04:13:50.805Z,99365.16
2018-06-09T04:16:22.797Z,99360.81
2018-06-09T04:18:56.662Z,99369.27
2018-06-09T04:21:28.991Z,99379.95
2018-06-09T04:24:02.059Z,99378.13
2018-06-09T04:26:34.033Z,99381.89
2018-06-09T04:29:06.496Z,99384.50
2018-06-09T04:31:38.224Z,99383.75
2018-06-09T04:34:11.259Z,99394.90
2018-06-09T04:36:43.521Z,99402.84
2018-06-09T04:39:15.282Z,99369.95
2018-06-09T04:41:47.094Z,99402.10
2018-06-09T04:44:18.917Z,99390.55
2018-06-09T04:46:52.177Z,99391.08
2018-06-09T04:49:23.414Z,99394.30
2018-06-09T04:51:57.100Z,99398.31
2018-06-09T04:54:28.678Z,99395.04
2018-06-09T04:56:59.652Z,99383.69
2018-06-09T04:59:31.842Z,99391.15
2018-06-09T05:02:05.335Z,99388.15
2018-06-09T05:04:39.575Z,99393.19
2018-06-09T05:07:11.144Z,99389.41
2018-06-09T05:09:41.852Z,99384.31
2018-06-09T05:12:13.472Z,99391.16
2018-06-09T05:14:47.019Z,99395.03
2018-06-09T05:17:19.098Z,99403.58
2018-06-09T05:19:52.908Z,99403.27
2018-06-09T05:22:26.277Z,99405.73
2018-06-09T05:24:57.341Z,99411.95
2018-06-09T05:27:28.254Z,99416.73
2018-06-09T05:29:58.977Z,99414.87
2018-06-09T05:32:30.926Z,99412.48
2018-06-09T05:35:09.387Z,99409.36
2018-06-09T05:37:41.360Z,99406.66
2018-06-09T05:40:14.693Z,99415.23
2018-06-09T05:42:47.169Z,99415.55
2018-06-09T05:45:18.238Z,99417.59
2018-06-09T05:47:48.984Z,99417.39
2018-06-09T05:50:21.904Z,99423.70
2018-06-09T05:52:53.578Z,99428.59
2018-06-09T05:55:26.649Z,99434.65
2018-06-09T05:57:58.054Z,99431.84
2018-06-09T06:00:30.870Z,99437.43
2018-06-09T06:03:03.212Z,99428.66
2018-06-09T06:05:41.547Z,99436.44
2018-06-09T06:08:16.246Z,99438.93
2018-06-09T06:10:50.581Z,99445.11
2018-06-09T06:13:23.100Z,99432.55
2018-06-09T06:15:54.946Z,99432.70
2018-06-09T06:18:27.582Z,99438.03
2018-06-09T06:21:01.359Z,99435.19
2018-06-09T06:23:38.472Z,99433.84
2018-06-09T06:26:15.719Z,99430.81
2018-06-09T06:28:49.572Z,99450.31
2018-06-09T06:31:23.375Z,99442.11
2018-06-09T06:33:54.405Z,99449.61
2018-06-09T06:36:26.152Z,99452.60
2018-06-09T06:38:57.201Z,99455.85
2018-06-09T06:41:30.132Z,99460.92
2018-06-09T06:44:01.151Z,99466.06
2018-06-09T06:46:33.251Z,99448.98
2018-06-09T06:49:09.120Z,99458.84
2018-06-09T06:51:42.761Z,99468.95
2018-06-09T06:54:15.282Z,99474.86
2018-06-09T06:56:46.464Z,99473.70
2018-06-09T06:59:18.858Z,99468.48
2018-06-09T07:01:57.650Z,99470.78
2018-06-09T07:04:30.331Z,99479.91
2018-06-09T07:07:03.009Z,99481.53
2018-06-09T07:09:34.309Z,99477.83
2018-06-09T07:12:10.603Z,99474.83
2018-06-09T07:14:42.314Z,99477.67
2018-06-09T07:17:15.724Z,99478.66
2018-06-09T07:19:49.508Z,99475.02
2018-06-09T07:22:29.673Z,99470.89
2018-06-09T07:25:01.067Z,99475.48
2018-06-09T07:27:32.798Z,99468.28
2018-06-09T07:30:06.322Z,99466.28
2018-06-09T07:32:38.996Z,99473.17
2018-06-09T07:35:11.941Z,99469.23
2018-06-09T07:37:46.358Z,99461.50
2018-06-09T07:40:18.857Z,99470.91
2018-06-09T07:42:50.262Z,99467.84
2018-06-09T07:45:22.476Z,99475.82
2018-06-09T07:47:57.111Z,99469.17
2018-06-09T07:50:34.506Z,99471.90
2018-06-09T07:53:05.450Z,99470.88
2018-06-09T07:55:36.428Z,99473.84
2018-06-09T07:58:09.277Z,99474.17
2018-06-09T08:00:41.880Z,99459.29
2018-06-09T08:03:13.818Z,99463.70
2018-06-09T08:05:49.966Z,99464.71
2018-06-09T08:08:24.920Z,99449.86
2018-06-09T08:10:56.948Z,99483.48
2018-06-09T08:13:29.943Z,99464.95
2018-06-09T08:16:03.659Z,99467.36
2018-06-09T08:18:39.137Z,99458.38
2018-06-09T08:21:11.462Z,99452.93
2018-06-09T08:23:45.109Z,99454.09
2018-06-09T08:26:19.329Z,99456.47
2018-06-09T08:28:51.623Z,99451.42
2018-06-09T08:31:23.443Z,99456.51
2018-06-09T08:33:54.046Z,99455.52
2018-06-09T08:36:25.739Z,99450.16
2018-06-09T08:38:59.657Z,99447.25
2018-06-09T08:41:34.422Z,99440.75
2018-06-09T08:44:10.291Z,99429.98
2018-06-09T08:46:43.846Z,99441.23
2018-06-09T08:49:22.709Z,99445.73
2018-06-09T08:51:54.806Z,99442.36
2018-06-09T08:54:26.217Z,99439.33
2018-06-09T08:56:57.874Z,99432.02
2018-06-09T08:59:32.814Z,99428.09
2018-06-09T09:02:08.090Z,99430.34
2018-06-09T09:04:41.820Z,99426.06
2018-06-09T09:07:16.083Z,99434.08
2018-06-09T09:09:48.869Z,99435.87
2018-06-09T09:12:23.617Z,99436.48
2018-06-09T09:14:58.847Z,99433.16
2018-06-09T09:17:33.049Z,99434.16
2018-06-09T09:20:07.276Z,99432.27
2018-06-09T09:22:41.283Z,99432.36
2018-06-09T09:25:15.716Z,99425.91
2018-06-09T09:27:46.689Z,99423.91
2018-06-09T09:30:19.291Z,99422.44
2018-06-09T09:32:51.020Z,99431.84
2018-06-09T09:37:47.164Z,99419.65
2018-06-09T09:40:18.723Z,99419.50
2018-06-09T09:42:49.478Z,99418.75
2018-06-09T09:45:24.234Z,99419.88
2018-06-09T09:47:57.478Z,99421.31
2018-06-09T09:50:29.292Z,99419.53
2018-06-09T09:53:00.713Z,99410.00
2018-06-09T09:55:31.386Z,99424.91
2018-06-09T09:58:03.840Z,99417.25
2018-06-09T10:00:41.472Z,99417.81
2018-06-09T10:03:15.263Z,99415.55
2018-06-09T10:05:50.402Z,99419.69
2018-06-09T10:08:26.810Z,99419.99
2018-06-09T10:10:59.792Z,99420.67
2018-06-09T10:13:35.556Z,99428.27
2018-06-09T10:16:06.322Z,99426.38
2018-06-09T10:18:39.097Z,99423.13
2018-06-09T10:21:10.541Z,99419.39
2018-06-09T10:23:41.325Z,99411.59
2018-06-09T10:26:12.060Z,99418.61
2018-06-09T10:28:43.860Z,99420.61
2018-06-09T10:31:14.629Z,99420.13
2018-06-09T10:33:53.652Z,99415.38
2018-06-09T10:36:24.692Z,99419.97
2018-06-09T10:38:59.626Z,99419.32
2018-06-09T10:41:31.580Z,99426.42
2018-06-09T10:44:03.404Z,99409.94
2018-06-09T10:46:38.236Z,99409.41
2018-06-09T10:49:08.983Z,99413.70
2018-06-09T10:51:40.276Z,99397.02
2018-06-09T10:54:13.554Z,99407.51
2018-06-09T10:56:46.612Z,99409.75
2018-06-09T10:59:17.860Z,99402.20
2018-06-09T11:01:52.177Z,99387.39
2018-06-09T11:04:24.207Z,99392.77
2018-06-09T11:06:56.340Z,99343.31
2018-06-09T11:09:28.064Z,99390.56
2018-06-09T11:11:59.802Z,99385.80
2018-06-09T11:14:31.376Z,99377.00
2018-06-09T11:17:02.020Z,99380.70
2018-06-09T11:19:34.028Z,99380.80
2018-06-09T11:22:09.700Z,99381.28
2018-06-09T11:24:41.665Z,99377.92
2018-06-09T11:27:13.557Z,99376.58
2018-06-09T11:29:44.192Z,99364.48
2018-06-09T11:32:16.864Z,99364.40
2018-06-09T11:34:47.504Z,99366.09
2018-06-09T11:37:18.201Z,99365.59
2018-06-09T11:39:50.075Z,99359.86
2018-06-09T11:42:28.912Z,99350.05
2018-06-09T11:44:59.858Z,99335.92
2018-06-09T11:47:31.504Z,99336.09
2018-06-09T11:50:06.551Z,99333.02
2018-06-09T11:52:40.599Z,99336.19
2018-06-09T11:55:11.478Z,99315.80
2018-06-09T11:57:44.234Z,99326.38
2018-06-09T12:00:19.870Z,99317.40
2018-06-09T12:02:51.836Z,99319.03
2018-06-09T12:05:24.637Z,99316.76
2018-06-09T12:07:58.654Z,99315.55
2018-06-09T12:10:30.272Z,99312.41
2018-06-09T12:13:05.108Z,99307.81
2018-06-09T12:15:38.492Z,99306.92
2018-06-09T12:18:13.205Z,99303.94
2018-06-09T12:20:45.493Z,99297.61
2018-06-09T12:23:17.969Z,99299.73
2018-06-09T12:25:53.602Z,99298.17
2018-06-09T12:28:27.424Z,99300.08
2018-06-09T12:30:58.987Z,99295.21
2018-06-09T12:33:32.447Z,99292.24
2018-06-09T12:36:04.790Z,99289.58
2018-06-09T12:38:38.385Z,99285.34
2018-06-09T12:41:10.623Z,99282.03
2018-06-09T12:43:45.236Z,99281.67
2018-06-09T12:46:15.988Z,99281.56
2018-06-09T12:48:47.513Z,99276.73
2018-06-09T12:51:18.796Z,99272.98
2018-06-09T12:53:50.265Z,99269.19
2018-06-09T12:56:24.649Z,99261.33
2018-06-09T12:58:57.460Z,99269.27
2018-06-09T13:01:32.490Z,99263.19
2018-06-09T13:04:03.151Z,99262.70
2018-06-09T13:06:35.337Z,99263.31
2018-06-09T13:09:08.971Z,99269.09
2018-06-09T13:11:40.310Z,99264.69
2018-06-09T13:14:13.915Z,99262.73
2018-06-09T13:16:44.672Z,99265.71
2018-06-09T13:19:15.371Z,99268.13
2018-06-09T13:21:46.141Z,99262.70
2018-06-09T13:24:20.414Z,99261.93
2018-06-09T13:26:51.648Z,99256.56
2018-06-09T13:29:25.827Z,99257.56
2018-06-09T13:31:59.308Z,99245.16
2018-06-09T13:34:31.901Z,99239.12
2018-06-09T13:37:04.280Z,99239.46
2018-06-09T13:39:37.289Z,99235.22
2018-06-09T13:42:08.830Z,99223.92
2018-06-09T13:44:41.128Z,99229.74
2018-06-09T13:47:16.393Z,99234.52
2018-06-09T13:49:47.159Z,99230.54
2018-06-09T13:52:18.806Z,99230.61
2018-06-09T13:54:51.550Z,99228.00
2018-06-09T13:57:22.539Z,99222.47
2018-06-09T13:59:53.363Z,99226.58
2018-06-09T14:02:24.769Z,99223.92
2018-06-09T14:04:57.102Z,99215.55
2018-06-09T14:07:29.672Z,99214.52
2018-06-09T14:10:00.432Z,99207.34
2018-06-09T14:12:32.164Z,99209.79
2018-06-09T14:15:04.169Z,99217.63
2018-06-09T14:17:35.623Z,99219.24
2018-06-09T14:20:08.984Z,99224.84
2018-06-09T14:22:40.335Z,99235.48
2018-06-09T14:25:15.011Z,99234.89
2018-06-09T14:27:46.669Z,99234.85
2018-06-09T14:30:18.104Z,99233.70
2018-06-09T14:32:49.988Z,99237.23
2018-06-09T14:35:21.575Z,99246.05
2018-06-09T14:37:55.823Z,99237.60
2018-06-09T14:40:29.894Z,99231.82
2018-06-09T14:43:07.501Z,99223.25
2018-06-09T14:45:39.560Z,99219.53
2018-06-09T14:48:10.907Z,99223.23
2018-06-09T14:50:42.127Z,99230.36
2018-06-09T14:53:16.549Z,99233.43
2018-06-09T14:55:49.224Z,99232.28
2018-06-09T14:58:20.757Z,99235.17
2018-06-09T15:00:54.623Z,99227.05
2018-06-09T15:03:28.936Z,99220.67
2018-06-09T15:06:00.512Z,99218.47
2018-06-09T15:08:32.224Z,99221.13
2018-06-09T15:11:05.996Z,99219.86
2018-06-09T15:22:34.920Z,99233.42
2018-06-09T15:25:05.952Z,99237.34
2018-06-09T15:27:37.281Z,99240.50
2018-06-09T15:30:14.252Z,99248.06
2018-06-09T15:32:52.435Z,99255.15
2018-06-09T15:35:24.835Z,99254.06
2018-06-09T15:38:03.863Z,99257.36
2018-06-09T15:40:34.618Z,99263.29
2018-06-09T15:43:06.476Z,99266.55
2018-06-09T15:45:43.564Z,99271.99
2018-06-09T15:48:16.372Z,99276.19
2018-06-09T15:50:49.216Z,99288.45
2018-06-09T15:53:21.952Z,99291.42
2018-06-09T15:55:53.419Z,99310.88
2018-06-09T15:58:24.552Z,99299.97
2018-06-09T16:00:56.188Z,99293.31
2018-06-09T16:03:31.473Z,99286.28
2018-06-09T16:06:06.064Z,99264.50
2018-06-09T16:08:36.941Z,99273.14
2018-06-09T16:11:13.279Z,99279.77
2018-06-09T16:13:47.234Z,99270.47
2018-06-09T16:16:18.429Z,99265.81
2018-06-09T16:18:51.363Z,99255.77
2018-06-09T16:21:22.085Z,99259.46
2018-06-09T16:23:55.421Z,99264.81
2018-06-09T16:26:31.600Z,99261.89
2018-06-09T16:29:10.658Z,99265.86
2018-06-09T16:31:43.380Z,99272.54
2018-06-09T16:34:14.850Z,99276.16
2018-06-09T16:36:49.355Z,99286.43
2018-06-09T16:39:20.580Z,99284.87
2018-06-09T16:41:51.420Z,99285.99
2018-06-09T16:44:24.318Z,99279.70
2018-06-09T16:46:58.674Z,99283.16
2018-06-09T16:49:38.460Z,99272.66
2018-06-09T16:52:12.693Z,99272.72
2018-06-09T16:54:47.657Z,99277.16
2018-06-09T16:57:23.291Z,99268.36
2018-06-09T16:59:58.618Z,99264.23
2018-06-09T17:02:29.300Z,99274.01
2018-06-09T17:05:04.662Z,99270.65
2018-06-09T17:07:37.248Z,99272.85
2018-06-09T17:10:08.872Z,99278.98
2018-06-09T17:12:40.125Z,99277.50
2018-06-09T17:15:15.259Z,99280.84
2018-06-09T17:17:48.654Z,99277.37
2018-06-09T17:20:20.080Z,99286.81
2018-06-09T17:22:51.538Z,99288.16
2018-06-09T17:25:23.856Z,99288.86
2018-06-09T17:27:56.649Z,99282.63
2018-06-09T17:30:29.385Z,99283.53
2018-06-09T17:33:00.205Z,99273.89
2018-06-09T17:35:33.012Z,99281.81
2018-06-09T17:38:06.324Z,99274.27
2018-06-09T17:40:39.144Z,99290.84
2018-06-09T17:43:10.635Z,99286.36
2018-06-09T17:45:42.700Z,99282.30
2018-06-09T17:48:13.401Z,99270.36
2018-06-09T17:50:44.036Z,99289.55
2018-06-09T17:53:19.436Z,99305.45
2018-06-09T17:55:54.353Z,99306.28
2018-06-09T17:58:29.956Z,99309.77
2018-06-09T18:01:02.481Z,99311.95
2018-06-09T18:03:36.288Z,99310.64
2018-06-09T18:06:10.449Z,99316.03
2018-06-09T18:08:41.970Z,99314.80
2018-06-09T18:11:13.312Z,99315.03
2018-06-09T18:13:44.086Z,99320.62
2018-06-09T18:16:16.305Z,99340.13
2018-06-09T18:18:50.568Z,99349.70
2018-06-09T18:21:21.210Z,99351.30
2018-06-09T18:23:53.511Z,99356.05
2018-06-09T18:26:25.830Z,99331.76
2018-06-09T18:28:57.371Z,99351.23
2018-06-09T18:31:31.534Z,99355.55
2018-06-09T18:34:02.559Z,99362.70
2018-06-09T18:36:34.440Z,99374.20
2018-06-09T18:39:09.540Z,99387.02
2018-06-09T18:41:40.428Z,99388.16
2018-06-09T18:44:22.423Z,99393.97
2018-06-09T18:46:56.606Z,99404.69
2018-06-09T18:49:29.117Z,99427.82
2018-06-09T18:52:01.833Z,99457.27
2018-06-09T18:54:39.100Z,99456.45
2018-06-09T18:57:14.453Z,99451.84
2018-06-09T19:02:26.596Z,99447.23
2018-06-09T19:04:57.924Z,99485.73
2018-06-09T19:07:35.005Z,99510.54
2018-06-09T19:10:08.116Z,99507.17
2018-06-09T19:12:42.324Z,99508.84
2018-06-09T19:15:15.964Z,99515.38
2018-06-09T19:17:47.758Z,99506.89
2018-06-09T19:20:21.756Z,99496.16
2018-06-09T19:22:53.446Z,99504.27
2018-06-09T19:25:24.867Z,99499.52
2018-06-09T19:28:00.525Z,99489.41
2018-06-09T19:30:31.222Z,99493.23
2018-06-09T19:33:03.755Z,99488.30
2018-06-09T19:35:35.385Z,99482.25
2018-06-09T19:38:10.476Z,99487.95
2018-06-09T19:40:46.379Z,99475.13
2018-06-09T19:43:19.288Z,99464.97
2018-06-09T19:45:54.977Z,99465.80
2018-06-09T19:48:29.882Z,99461.02
2018-06-09T19:51:04.300Z,99468.44
2018-06-09T19:53:36.796Z,99476.36
2018-06-09T19:56:22.779Z,99470.09
2018-06-09T19:58:59.840Z,99474.30
2018-06-09T20:01:34.067Z,99463.96
2018-06-09T20:04:07.932Z,99444.30
2018-06-09T20:06:41.303Z,99442.31
2018-06-09T20:09:25.576Z,99444.00
2018-06-09T20:12:01.383Z,99439.88
2018-06-09T20:14:35.564Z,99428.77
2018-06-09T20:17:09.452Z,99424.97
2018-06-09T20:19:43.409Z,99425.75
2018-06-09T20:22:17.838Z,99414.31
2018-06-09T20:24:52.654Z,99405.02
2018-06-09T20:27:27.396Z,99398.45
2018-06-09T20:32:47.412Z,99387.09
2018-06-09T20:35:21.494Z,99387.34
2018-06-09T20:37:55.982Z,99391.97
2018-06-09T20:40:30.416Z,99388.16
2018-06-09T20:43:05.330Z,99390.63
2018-06-09T20:45:39.849Z,99390.63
2018-06-09T20:48:13.012Z,99385.18
2018-06-09T20:50:50.404Z,99379.45
2018-06-09T20:54:28.479Z,99391.17
2018-06-09T20:57:00.879Z,99389.81
2018-06-09T20:59:37.677Z,99407.27
2018-06-09T21:02:11.336Z,99406.73
2018-06-09T21:04:45.808Z,99409.75
2018-06-09T21:07:19.237Z,99418.20
2018-06-09T21:09:54.381Z,99429.70
2018-06-09T21:12:25.130Z,99432.41
2018-06-09T21:14:59.800Z,99428.05
2018-06-09T21:17:33.384Z,99429.69
2018-06-09T21:20:05.873Z,99427.51
2018-06-09T21:22:37.626Z,99413.83
2018-06-09T21:25:26.289Z,99417.14
2018-06-09T21:28:06.113Z,99412.48
2018-06-09T21:30:44.196Z,99407.03
2018-06-09T21:33:31.369Z,99427.19
2018-06-09T21:36:11.232Z,99410.72
2018-06-09T21:38:48.073Z,99415.05
2018-06-09T21:41:30.034Z,99419.84
2018-06-09T21:44:06.068Z,99424.47
2018-06-09T21:46:44.684Z,99427.27
2018-06-09T21:49:17.067Z,99435.44
2018-06-09T21:52:06.472Z,99448.28
2018-06-09T21:54:41.301Z,99444.84
2018-06-09T21:57:13.177Z,99455.49
2018-06-09T22:00:06.345Z,99466.65
2018-06-09T22:02:40.440Z,99471.31
2018-06-09T22:05:13.350Z,99476.48
2018-06-09T22:07:51.236Z,99478.17
2018-06-09T22:10:30.189Z,99461.81
2018-06-09T22:13:02.732Z,99476.91
2018-06-09T22:15:38.089Z,99467.30
2018-06-09T22:18:09.724Z,99472.72
2018-06-09T22:20:41.700Z,99482.56
2018-06-09T22:23:12.416Z,99477.39
2018-06-09T22:26:10.767Z,99476.02
2018-06-09T22:28:41.461Z,99468.67
2018-06-09T22:31:14.684Z,99490.20
2018-06-09T22:33:49.180Z,99490.99
2018-06-09T22:36:25.644Z,99486.83
2018-06-09T22:41:57.161Z,99476.84
2018-06-09T22:44:31.860Z,99476.17
2018-06-09T22:47:03.960Z,99471.50
2018-06-09T22:49:40.591Z,99462.42
2018-06-09T22:52:15.931Z,99462.97
2018-06-09T22:54:50.720Z,99457.59
2018-06-09T22:57:26.493Z,99459.12
2018-06-09T23:00:02.065Z,99450.09
2018-06-09T23:03:07.369Z,99438.69
2018-06-09T23:05:39.704Z,99446.83
2018-06-09T23:08:13.495Z,99442.45
2018-06-09T23:10:47.396Z,99444.37
2018-06-09T23:13:23.856Z,99443.38
2018-06-09T23:15:58.566Z,99441.18
2018-06-09T23:18:33.968Z,99438.17
2018-06-09T23:21:06.229Z,99432.70
2018-06-09T23:23:41.671Z,99422.86
2018-06-09T23:26:17.509Z,99415.73
2018-06-09T23:28:52.570Z,99422.33
2018-06-09T23:31:27.531Z,99415.50
2018-06-09T23:33:59.629Z,99421.72
2018-06-09T23:36:33.281Z,99410.80
2018-06-09T23:39:07.682Z,99417.33
2018-06-09T23:41:41.834Z,99410.75
2018-06-09T23:44:14.755Z,99405.50
2018-06-09T23:46:47.283Z,99405.84
2018-06-09T23:49:22.337Z,99395.83
2018-06-09T23:51:55.369Z,99393.96
2018-06-09T23:54:29.505Z,99387.75
2018-06-09T23:57:03.585Z,99380.11
2018-06-09T23:59:35.693Z,99382.59
